Time;durP1;ratioP1;P1;durP2;ratioP2;P2;SDS_P1;SDS_P2;PMS_P1;PMS_P2;Temp;Humidity;BMP_temperature;BMP_pressure;BME280_temperature;BME280_humidity;BME280_pressure;Samples;Min_cycle;Max_cycle;Signal;HPM_P1;HPM_P2
2021/03/18 00:00:09;;;;;;;32.47;24.63;;;;;;;;;;2076065;28;20193;-63
2021/03/18 00:01:11;;;;;;;33.70;22.80;;;;;;;;;;2071411;28;20208;-63
2021/03/18 00:02:11;;;;;;;33.30;23.23;;;;;;;;;;2073479;28;20446;-64
2021/03/18 00:03:15;;;;;;;27.03;22.83;;;;;;;;;;2063350;28;20210;-64
2021/03/18 00:04:16;;;;;;;26.63;21.97;;;;;;;;;;2067755;28;20181;-62
2021/03/18 00:05:16;;;;;;;29.40;20.80;;;;;;;;;;2063703;28;20442;-63
2021/03/18 00:06:16;;;;;;;27.53;20.33;;;;;;;;;;2065127;28;20213;-62
2021/03/18 00:07:17;;;;;;;26.97;21.03;;;;;;;;;;2073179;28;20192;-65
2021/03/18 00:08:17;;;;;;;28.07;23.17;;;;;;;;;;2067687;28;20178;-63
2021/03/18 00:09:18;;;;;;;27.47;23.70;;;;;;;;;;2066017;28;20410;-63
2021/03/18 00:10:19;;;;;;;30.60;23.97;;;;;;;;;;2072817;28;20193;-63
2021/03/18 00:11:20;;;;;;;31.27;24.13;;;;;;;;;;2064656;28;20189;-58
2021/03/18 00:12:21;;;;;;;29.93;24.63;;;;;;;;;;2065149;28;20670;-64
2021/03/18 00:13:22;;;;;;;29.10;24.23;;;;;;;;;;2073514;28;20430;-64
2021/03/18 00:14:24;;;;;;;29.57;23.00;;;;;;;;;;2073245;28;20553;-64
2021/03/18 00:15:24;;;;;;;27.27;22.37;;;;;;;;;;2073721;28;20193;-64
2021/03/18 00:16:24;;;;;;;29.13;22.90;;;;;;;;;;2072986;28;20272;-63
2021/03/18 00:17:24;;;;;;;30.43;21.93;;;;;;;;;;2073021;28;20184;-63
2021/03/18 00:18:27;;;;;;;24.90;20.87;;;;;;;;;;2075240;28;20226;-63
2021/03/18 00:19:28;;;;;;;27.83;21.93;;;;;;;;;;2073488;28;20192;-64
2021/03/18 00:20:28;;;;;;;29.60;20.90;;;;;;;;;;2075146;28;20449;-65
2021/03/18 00:21:28;;;;;;;24.63;20.63;;;;;;;;;;2073175;28;20299;-62
2021/03/18 00:22:28;;;;;;;27.53;21.73;;;;;;;;;;2073378;28;20177;-63
2021/03/18 00:23:29;;;;;;;25.43;20.90;;;;;;;;;;2074308;28;20231;-64
2021/03/18 00:24:29;;;;;;;27.70;22.73;;;;;;;;;;2073833;28;20268;-61
2021/03/18 00:25:30;;;;;;;30.87;22.63;;;;;;;;;;2073297;28;20642;-64
2021/03/18 00:26:31;;;;;;;30.03;23.57;;;;;;;;;;2074535;28;20173;-64
2021/03/18 00:27:31;;;;;;;29.57;23.93;;;;;;;;;;2073052;28;20181;-63
2021/03/18 00:28:32;;;;;;;31.87;25.37;;;;;;;;;;2064900;28;20209;-63
2021/03/18 00:29:32;;;;;;;34.37;25.50;;;;;;;;;;2065911;28;20215;-62
2021/03/18 00:30:33;;;;;;;37.03;23.73;;;;;;;;;;2063647;28;20228;-63
2021/03/18 00:31:35;;;;;;;29.57;24.03;;;;;;;;;;2071857;28;20177;-64
2021/03/18 00:32:36;;;;;;;29.70;23.57;;;;;;;;;;2064381;28;20181;-62
2021/03/18 00:33:36;;;;;;;32.30;23.67;;;;;;;;;;2063749;28;20438;-64
2021/03/18 00:34:36;;;;;;;29.60;23.20;;;;;;;;;;2078140;28;20410;-62
2021/03/18 00:35:36;;;;;;;32.37;23.60;;;;;;;;;;2077425;28;20181;-62
2021/03/18 00:36:37;;;;;;;30.23;23.23;;;;;;;;;;2077449;28;20588;-63
2021/03/18 00:37:41;;;;;;;29.03;23.00;;;;;;;;;;2067145;28;20253;-63
2021/03/18 00:38:41;;;;;;;27.43;21.77;;;;;;;;;;2070300;28;20172;-64
2021/03/18 00:39:42;;;;;;;30.40;23.20;;;;;;;;;;2081378;28;20592;-62
2021/03/18 00:40:47;;;;;;;29.90;23.27;;;;;;;;;;2072868;28;20884;-63
2021/03/18 00:41:47;;;;;;;26.17;22.33;;;;;;;;;;2072241;28;20756;-63
2021/03/18 00:42:48;;;;;;;29.30;22.90;;;;;;;;;;2071787;28;20418;-62
2021/03/18 00:43:49;;;;;;;29.23;21.63;;;;;;;;;;2062728;28;20223;-63
2021/03/18 00:44:49;;;;;;;26.00;22.53;;;;;;;;;;2063813;28;20843;-64
2021/03/18 00:45:50;;;;;;;27.50;21.93;;;;;;;;;;2070981;28;20622;-62
2021/03/18 00:46:50;;;;;;;27.53;22.33;;;;;;;;;;2064541;28;20178;-64
2021/03/18 00:47:51;;;;;;;24.37;21.33;;;;;;;;;;2067940;28;20229;-63
2021/03/18 00:48:51;;;;;;;24.87;20.90;;;;;;;;;;2063769;28;20181;-63
2021/03/18 00:49:51;;;;;;;31.13;25.67;;;;;;;;;;2071917;28;20848;-63
2021/03/18 00:50:53;;;;;;;36.87;26.70;;;;;;;;;;2072397;28;20176;-63
2021/03/18 00:51:55;;;;;;;35.33;27.93;;;;;;;;;;2080450;28;20230;-61
2021/03/18 00:52:56;;;;;;;39.00;27.47;;;;;;;;;;2072394;28;20434;-63
2021/03/18 00:53:56;;;;;;;36.53;26.77;;;;;;;;;;2063540;28;20224;-63
2021/03/18 00:54:57;;;;;;;36.53;25.97;;;;;;;;;;2063900;28;20420;-62
2021/03/18 00:55:57;;;;;;;32.40;26.33;;;;;;;;;;2067270;28;20189;-63
2021/03/18 00:56:58;;;;;;;29.70;24.47;;;;;;;;;;2055714;28;20184;-63
2021/03/18 00:58:00;;;;;;;35.17;24.70;;;;;;;;;;2063685;28;20544;-63
2021/03/18 00:59:01;;;;;;;39.43;30.37;;;;;;;;;;2063552;28;20173;-63
2021/03/18 01:00:05;;;;;;;40.70;27.20;;;;;;;;;;2064319;28;20923;-64
2021/03/18 01:01:07;;;;;;;33.13;24.30;;;;;;;;;;2063666;28;20459;-64
2021/03/18 01:02:08;;;;;;;33.10;25.27;;;;;;;;;;2063765;28;20454;-63
2021/03/18 01:03:09;;;;;;;40.80;26.77;;;;;;;;;;2071561;28;20438;-64
2021/03/18 01:04:10;;;;;;;29.77;23.67;;;;;;;;;;2065459;28;20205;-63
2021/03/18 01:05:12;;;;;;;30.60;23.87;;;;;;;;;;2062418;28;20403;-63
2021/03/18 01:06:16;;;;;;;26.87;22.20;;;;;;;;;;2063539;28;20178;-63
2021/03/18 01:07:16;;;;;;;30.63;22.23;;;;;;;;;;2058494;28;20416;-63
2021/03/18 01:08:18;;;;;;;34.17;24.00;;;;;;;;;;2063947;28;21025;-63
2021/03/18 01:09:18;;;;;;;27.67;22.87;;;;;;;;;;2073245;28;20181;-63
2021/03/18 01:10:18;;;;;;;35.83;25.43;;;;;;;;;;2065923;28;20485;-63
2021/03/18 01:11:20;;;;;;;43.70;28.30;;;;;;;;;;2061275;28;20185;-63
2021/03/18 01:12:20;;;;;;;33.77;26.13;;;;;;;;;;2077407;28;20268;-63
2021/03/18 01:13:21;;;;;;;37.30;27.13;;;;;;;;;;2073402;28;20397;-64
2021/03/18 01:14:21;;;;;;;36.37;25.70;;;;;;;;;;2075604;28;20176;-63
2021/03/18 01:15:23;;;;;;;29.67;24.47;;;;;;;;;;2077483;28;20213;-64
2021/03/18 01:16:26;;;;;;;35.80;25.63;;;;;;;;;;2078805;28;20246;-64
2021/03/18 01:17:28;;;;;;;31.20;23.37;;;;;;;;;;2076848;28;20996;-65
2021/03/18 01:18:36;;;;;;;52.93;33.10;;;;;;;;;;2072085;28;20430;-64
2021/03/18 01:19:36;;;;;;;52.00;30.90;;;;;;;;;;2078233;28;20173;-62
2021/03/18 01:20:36;;;;;;;44.73;30.20;;;;;;;;;;2071547;28;20460;-63
2021/03/18 01:21:38;;;;;;;50.90;32.23;;;;;;;;;;2071417;28;20169;-63
2021/03/18 01:22:39;;;;;;;37.20;27.43;;;;;;;;;;2076806;28;20216;-62
2021/03/18 01:23:39;;;;;;;42.77;27.37;;;;;;;;;;2072951;28;20421;-62
2021/03/18 01:24:39;;;;;;;33.33;25.00;;;;;;;;;;2077613;28;20264;-63
2021/03/18 01:25:39;;;;;;;33.17;24.23;;;;;;;;;;2065857;28;20174;-63
2021/03/18 01:26:41;;;;;;;32.93;23.80;;;;;;;;;;2064160;28;20276;-63
2021/03/18 01:27:42;;;;;;;32.57;23.30;;;;;;;;;;2058225;28;20196;-63
2021/03/18 01:28:42;;;;;;;30.77;24.47;;;;;;;;;;2061329;28;20169;-63
2021/03/18 01:29:42;;;;;;;33.27;23.27;;;;;;;;;;2078507;28;20179;-64
2021/03/18 01:30:42;;;;;;;30.77;24.30;;;;;;;;;;2074963;28;20227;-62
2021/03/18 01:31:43;;;;;;;29.97;23.83;;;;;;;;;;2077986;28;20276;-62
2021/03/18 01:32:43;;;;;;;30.90;22.67;;;;;;;;;;2074514;28;20184;-65
2021/03/18 01:33:44;;;;;;;28.03;21.73;;;;;;;;;;2072747;28;20189;-64
2021/03/18 01:34:44;;;;;;;26.40;21.23;;;;;;;;;;2055561;28;20328;-64
2021/03/18 01:35:44;;;;;;;31.13;21.40;;;;;;;;;;2056063;28;20174;-64
2021/03/18 01:36:44;;;;;;;28.17;21.27;;;;;;;;;;2071535;28;20272;-63
2021/03/18 01:37:47;;;;;;;28.93;20.93;;;;;;;;;;2072467;28;20204;-63
2021/03/18 01:38:47;;;;;;;28.70;20.07;;;;;;;;;;2072220;28;20192;-64
2021/03/18 01:39:48;;;;;;;23.93;20.43;;;;;;;;;;2078963;28;20180;-63
2021/03/18 01:40:48;;;;;;;27.80;21.63;;;;;;;;;;2071863;28;20275;-64
2021/03/18 01:41:48;;;;;;;26.10;20.67;;;;;;;;;;2072304;28;20293;-65
2021/03/18 01:42:49;;;;;;;25.80;21.33;;;;;;;;;;2072693;28;20169;-62
2021/03/18 01:43:49;;;;;;;31.10;24.90;;;;;;;;;;2078638;28;20172;-65
2021/03/18 01:44:49;;;;;;;35.83;26.97;;;;;;;;;;2072124;28;20250;-63
2021/03/18 01:45:50;;;;;;;33.73;27.60;;;;;;;;;;2078976;28;20225;-63
2021/03/18 01:46:50;;;;;;;34.80;26.87;;;;;;;;;;2073482;28;20185;-65
2021/03/18 01:47:51;;;;;;;32.87;26.30;;;;;;;;;;2063856;28;20225;-63
2021/03/18 01:48:52;;;;;;;29.87;24.87;;;;;;;;;;2064025;28;20222;-64
2021/03/18 01:49:52;;;;;;;36.60;25.03;;;;;;;;;;2081288;28;20203;-63
2021/03/18 01:50:53;;;;;;;30.83;24.07;;;;;;;;;;2075172;28;20177;-63
2021/03/18 01:51:53;;;;;;;29.23;23.83;;;;;;;;;;2064672;28;20201;-63
2021/03/18 01:52:54;;;;;;;30.47;24.90;;;;;;;;;;2072334;28;20183;-64
2021/03/18 01:53:54;;;;;;;34.07;24.77;;;;;;;;;;2065313;28;20177;-64
2021/03/18 01:54:55;;;;;;;32.97;26.03;;;;;;;;;;2066965;28;20209;-63
2021/03/18 01:55:56;;;;;;;38.03;25.13;;;;;;;;;;2081782;28;20259;-63
2021/03/18 01:56:59;;;;;;;34.20;24.83;;;;;;;;;;2072898;28;20184;-63
2021/03/18 01:57:59;;;;;;;31.03;23.43;;;;;;;;;;2073673;28;20220;-63
2021/03/18 01:59:00;;;;;;;31.33;24.63;;;;;;;;;;2065123;28;20176;-64
2021/03/18 02:00:00;;;;;;;28.40;23.80;;;;;;;;;;2072820;28;20236;-63
2021/03/18 02:01:04;;;;;;;28.67;23.77;;;;;;;;;;2073750;28;20204;-63
2021/03/18 02:02:05;;;;;;;31.03;23.43;;;;;;;;;;2077838;28;20196;-63
2021/03/18 02:03:05;;;;;;;31.93;22.73;;;;;;;;;;2066485;28;20174;-63
2021/03/18 02:04:05;;;;;;;29.93;24.33;;;;;;;;;;2072471;28;20644;-63
2021/03/18 02:05:06;;;;;;;32.37;24.03;;;;;;;;;;2074269;28;20592;-64
2021/03/18 02:06:07;;;;;;;30.40;23.77;;;;;;;;;;2072737;28;20161;-64
2021/03/18 02:07:07;;;;;;;30.73;23.93;;;;;;;;;;2073802;28;20181;-64
2021/03/18 02:08:07;;;;;;;31.40;23.43;;;;;;;;;;2074015;28;20177;-64
2021/03/18 02:09:08;;;;;;;27.57;23.57;;;;;;;;;;2074664;28;20185;-64
2021/03/18 02:10:09;;;;;;;30.97;22.90;;;;;;;;;;2066595;28;20180;-63
2021/03/18 02:11:09;;;;;;;28.47;22.57;;;;;;;;;;2072176;28;20181;-65
2021/03/18 02:12:09;;;;;;;26.20;22.20;;;;;;;;;;2073622;28;20216;-63
2021/03/18 02:13:10;;;;;;;27.03;23.77;;;;;;;;;;2073478;28;20173;-63
2021/03/18 02:14:11;;;;;;;26.20;22.23;;;;;;;;;;2073399;28;20645;-63
2021/03/18 02:15:12;;;;;;;28.70;21.63;;;;;;;;;;2075154;28;20180;-64
2021/03/18 02:16:12;;;;;;;30.27;23.10;;;;;;;;;;2080359;28;20184;-63
2021/03/18 02:17:18;;;;;;;32.63;22.93;;;;;;;;;;2076051;28;20175;-63
2021/03/18 02:18:27;;;;;;;26.53;22.67;;;;;;;;;;2078983;28;20173;-64
2021/03/18 02:19:33;;;;;;;35.17;26.93;;;;;;;;;;2073263;28;20185;-64
2021/03/18 02:20:45;;;;;;;41.47;29.30;;;;;;;;;;2078700;28;20260;-66
2021/03/18 02:22:04;;;;;;;45.13;31.07;;;;;;;;;;2075378;28;20708;-63
2021/03/18 02:23:23;;;;;;;33.53;25.70;;;;;;;;;;2057601;28;20181;-64
2021/03/18 02:24:35;;;;;;;50.63;37.30;;;;;;;;;;2064530;28;20568;-64
2021/03/18 02:25:45;;;;;;;43.93;29.40;;;;;;;;;;2065007;28;20268;-64
2021/03/18 02:26:57;;;;;;;35.23;28.03;;;;;;;;;;2055663;28;20194;-63
2021/03/18 02:28:00;;;;;;;32.40;25.23;;;;;;;;;;2044492;28;20664;-64
2021/03/18 02:29:23;;;;;;;37.27;27.70;;;;;;;;;;2048493;28;20237;-64
2021/03/18 02:30:35;;;;;;;33.00;24.97;;;;;;;;;;2071198;28;20428;-64
2021/03/18 02:31:54;;;;;;;31.07;21.57;;;;;;;;;;2067822;28;20610;-64
2021/03/18 02:33:00;;;;;;;28.63;21.27;;;;;;;;;;2057246;28;20217;-64
2021/03/18 02:34:00;;;;;;;34.63;26.23;;;;;;;;;;2057373;28;20174;-64
2021/03/18 02:35:16;;;;;;;31.20;22.50;;;;;;;;;;2056873;28;20923;-64
2021/03/18 02:36:20;;;;;;;30.20;21.80;;;;;;;;;;2066794;28;20588;-64
2021/03/18 02:37:22;;;;;;;34.50;23.03;;;;;;;;;;2065232;28;20165;-64
2021/03/18 02:38:26;;;;;;;27.93;21.80;;;;;;;;;;2064927;28;20173;-63
2021/03/18 02:39:31;;;;;;;22.87;19.70;;;;;;;;;;2064763;28;20196;-64
2021/03/18 02:40:33;;;;;;;27.10;21.07;;;;;;;;;;2069883;28;20176;-64
2021/03/18 02:41:37;;;;;;;32.87;20.67;;;;;;;;;;2072361;28;20192;-64
2021/03/18 02:42:38;;;;;;;27.77;19.87;;;;;;;;;;2056885;28;20181;-64
2021/03/18 02:43:41;;;;;;;26.97;19.83;;;;;;;;;;2049209;28;20664;-63
2021/03/18 02:44:42;;;;;;;25.70;20.53;;;;;;;;;;2035514;29;20727;-64
2021/03/18 02:45:45;;;;;;;24.03;20.37;;;;;;;;;;2056473;28;20229;-64
2021/03/18 02:46:47;;;;;;;27.07;20.87;;;;;;;;;;2071698;28;20173;-64
2021/03/18 02:47:49;;;;;;;29.40;21.33;;;;;;;;;;2058717;28;20257;-64
2021/03/18 02:48:52;;;;;;;23.87;19.60;;;;;;;;;;2064290;28;20169;-64
2021/03/18 02:49:53;;;;;;;27.30;20.57;;;;;;;;;;2072374;28;20326;-64
2021/03/18 02:50:54;;;;;;;37.40;24.13;;;;;;;;;;2065054;28;20220;-64
2021/03/18 02:51:56;;;;;;;31.13;21.80;;;;;;;;;;2064148;28;20269;-63
2021/03/18 02:52:58;;;;;;;26.93;19.97;;;;;;;;;;2073045;28;20177;-64
2021/03/18 02:54:01;;;;;;;27.87;18.43;;;;;;;;;;2073163;28;20173;-64
2021/03/18 02:55:03;;;;;;;24.30;18.30;;;;;;;;;;2064916;28;20178;-64
2021/03/18 02:56:04;;;;;;;26.53;18.77;;;;;;;;;;2057204;28;20401;-64
2021/03/18 02:57:06;;;;;;;33.80;21.53;;;;;;;;;;2065344;28;20621;-64
2021/03/18 02:58:07;;;;;;;31.37;21.47;;;;;;;;;;2073060;28;20229;-67
2021/03/18 02:59:09;;;;;;;26.80;19.77;;;;;;;;;;2065226;28;20173;-64
2021/03/18 03:00:10;;;;;;;28.47;20.73;;;;;;;;;;2057759;28;20175;-63
2021/03/18 03:01:11;;;;;;;36.77;20.87;;;;;;;;;;2064784;28;20189;-64
2021/03/18 03:02:15;;;;;;;31.23;19.67;;;;;;;;;;2073146;28;20250;-64
2021/03/18 03:03:16;;;;;;;25.87;19.30;;;;;;;;;;2065480;28;20261;-63
2021/03/18 03:04:17;;;;;;;25.07;18.53;;;;;;;;;;2057886;28;20189;-64
2021/03/18 03:05:19;;;;;;;22.20;18.27;;;;;;;;;;2057425;28;20181;-64
2021/03/18 03:06:20;;;;;;;26.93;18.87;;;;;;;;;;2057490;28;20179;-64
2021/03/18 03:07:22;;;;;;;25.97;17.70;;;;;;;;;;2057384;28;20219;-64
2021/03/18 03:08:24;;;;;;;25.83;19.10;;;;;;;;;;2065349;28;20634;-63
2021/03/18 03:09:25;;;;;;;26.80;18.27;;;;;;;;;;2065070;28;20170;-65
2021/03/18 03:10:26;;;;;;;31.33;19.27;;;;;;;;;;2065511;28;20429;-65
2021/03/18 03:11:27;;;;;;;31.97;19.50;;;;;;;;;;2058675;28;20177;-64
2021/03/18 03:12:30;;;;;;;30.10;20.03;;;;;;;;;;2052949;28;20185;-65
2021/03/18 03:13:33;;;;;;;29.20;18.63;;;;;;;;;;2066862;28;20629;-63
2021/03/18 03:14:33;;;;;;;26.73;18.23;;;;;;;;;;2060631;28;20189;-63
2021/03/18 03:15:33;;;;;;;25.90;19.53;;;;;;;;;;2056301;28;20578;-63
2021/03/18 03:16:34;;;;;;;29.23;18.40;;;;;;;;;;2053525;28;20209;-64
2021/03/18 03:17:35;;;;;;;25.07;18.07;;;;;;;;;;2066949;28;20260;-64
2021/03/18 03:18:36;;;;;;;29.63;18.77;;;;;;;;;;2075545;28;20172;-64
2021/03/18 03:19:38;;;;;;;32.30;20.60;;;;;;;;;;2076389;28;20645;-64
2021/03/18 03:20:39;;;;;;;29.30;19.97;;;;;;;;;;2073142;28;20220;-64
2021/03/18 03:21:39;;;;;;;36.97;19.13;;;;;;;;;;2071871;28;20204;-65
2021/03/18 03:22:40;;;;;;;31.80;19.73;;;;;;;;;;2076046;28;20219;-64
2021/03/18 03:23:43;;;;;;;32.70;20.00;;;;;;;;;;2073067;28;20185;-64
2021/03/18 03:24:44;;;;;;;35.00;20.37;;;;;;;;;;2065471;28;20170;-63
2021/03/18 03:25:45;;;;;;;29.80;20.20;;;;;;;;;;2062768;28;20181;-63
2021/03/18 03:26:45;;;;;;;35.93;22.60;;;;;;;;;;2061215;28;20500;-63
2021/03/18 03:27:46;;;;;;;31.37;19.60;;;;;;;;;;2057995;28;20253;-63
2021/03/18 03:28:47;;;;;;;35.93;20.80;;;;;;;;;;2057034;28;20337;-64
2021/03/18 03:29:48;;;;;;;34.47;22.60;;;;;;;;;;2064119;28;20205;-62
2021/03/18 03:30:48;;;;;;;42.83;23.43;;;;;;;;;;2072082;28;20180;-64
2021/03/18 03:31:49;;;;;;;35.27;20.87;;;;;;;;;;2064323;28;20189;-64
2021/03/18 03:32:49;;;;;;;34.00;22.83;;;;;;;;;;2065131;28;20177;-64
2021/03/18 03:33:50;;;;;;;40.77;22.53;;;;;;;;;;2063442;28;20174;-63
2021/03/18 03:34:50;;;;;;;35.33;21.37;;;;;;;;;;2050249;28;20702;-64
2021/03/18 03:35:51;;;;;;;36.37;21.83;;;;;;;;;;2056704;28;20652;-63
2021/03/18 03:36:51;;;;;;;33.10;22.07;;;;;;;;;;2055876;28;20213;-64
2021/03/18 03:37:52;;;;;;;29.77;20.63;;;;;;;;;;2048360;28;20179;-63
2021/03/18 03:38:52;;;;;;;38.20;21.67;;;;;;;;;;2055983;28;20170;-63
2021/03/18 03:39:52;;;;;;;31.63;20.67;;;;;;;;;;2053371;28;20181;-63
2021/03/18 03:40:53;;;;;;;32.07;20.07;;;;;;;;;;2056081;28;20198;-62
2021/03/18 03:43:01;;;;;;;31.30;20.77;;;;;;;;;;2065850;28;20244;-55
2021/03/18 03:44:02;;;;;;;37.70;19.70;;;;;;;;;;2064377;28;20261;-54
2021/03/18 03:45:07;;;;;;;35.83;20.77;;;;;;;;;;2064402;28;20212;-55
2021/03/18 03:46:07;;;;;;;38.40;21.93;;;;;;;;;;2065561;28;20177;-56
2021/03/18 03:47:08;;;;;;;32.07;20.97;;;;;;;;;;2068260;28;20182;-55
2021/03/18 03:48:09;;;;;;;35.50;20.67;;;;;;;;;;2071977;28;20299;-54
2021/03/18 03:49:10;;;;;;;33.93;20.50;;;;;;;;;;2065221;28;20177;-51
2021/03/18 03:50:12;;;;;;;36.60;21.07;;;;;;;;;;2063287;28;20177;-55
2021/03/18 03:51:12;;;;;;;41.77;21.23;;;;;;;;;;2063558;28;20186;-55
2021/03/18 03:52:13;;;;;;;36.70;21.17;;;;;;;;;;2069809;28;20260;-56
2021/03/18 03:53:25;;;;;;;33.87;19.23;;;;;;;;;;2063439;28;20177;-55
2021/03/18 03:54:27;;;;;;;28.60;19.10;;;;;;;;;;2060147;28;20177;-55
2021/03/18 03:55:31;;;;;;;32.83;17.77;;;;;;;;;;2060945;28;20435;-56
2021/03/18 03:56:40;;;;;;;34.23;17.30;;;;;;;;;;2068280;28;20183;-57
2021/03/18 03:57:43;;;;;;;27.17;15.70;;;;;;;;;;2064662;28;20575;-55
2021/03/18 03:58:49;;;;;;;40.23;21.33;;;;;;;;;;2064734;28;20173;-55
2021/03/18 03:59:49;;;;;;;34.77;20.60;;;;;;;;;;2064469;28;20189;-55
2021/03/18 04:00:50;;;;;;;32.87;19.20;;;;;;;;;;2064801;28;20431;-55
2021/03/18 04:01:52;;;;;;;31.63;17.97;;;;;;;;;;2064408;28;20264;-55
2021/03/18 04:02:55;;;;;;;30.47;18.73;;;;;;;;;;2072457;28;20169;-57
2021/03/18 04:04:21;;;;;;;23.87;16.13;;;;;;;;;;2069811;28;20829;-58
2021/03/18 04:05:22;;;;;;;27.33;16.40;;;;;;;;;;2064363;28;20198;-58
2021/03/18 04:06:22;;;;;;;25.40;16.60;;;;;;;;;;2072015;28;20461;-54
2021/03/18 04:07:32;;;;;;;25.90;16.80;;;;;;;;;;2075028;28;20248;-59
2021/03/18 04:08:34;;;;;;;31.13;18.63;;;;;;;;;;2068642;28;20208;-57
2021/03/18 04:09:34;;;;;;;38.67;19.67;;;;;;;;;;2064712;28;20177;-58
2021/03/18 04:10:35;;;;;;;31.53;18.63;;;;;;;;;;2072619;28;20235;-58
2021/03/18 04:11:36;;;;;;;33.67;19.43;;;;;;;;;;2064055;28;20241;-59
2021/03/18 04:12:38;;;;;;;33.27;20.33;;;;;;;;;;2064215;28;20288;-57
2021/03/18 04:13:38;;;;;;;31.23;20.43;;;;;;;;;;2069259;28;20252;-59
2021/03/18 04:14:42;;;;;;;29.83;18.60;;;;;;;;;;2067853;28;20174;-58
2021/03/18 04:15:43;;;;;;;28.37;17.07;;;;;;;;;;2064210;28;20723;-60
2021/03/18 04:16:44;;;;;;;25.80;17.03;;;;;;;;;;2067452;28;20174;-56
2021/03/18 04:17:47;;;;;;;28.80;16.00;;;;;;;;;;2070303;28;20434;-56
2021/03/18 04:18:49;;;;;;;30.37;16.53;;;;;;;;;;2066404;28;20199;-59
2021/03/18 04:19:50;;;;;;;23.40;14.80;;;;;;;;;;2071873;28;20842;-60
2021/03/18 04:20:52;;;;;;;33.13;22.10;;;;;;;;;;2070343;28;20165;-60
2021/03/18 04:21:53;;;;;;;24.23;16.10;;;;;;;;;;2070733;28;20586;-57
2021/03/18 04:22:54;;;;;;;24.50;16.70;;;;;;;;;;2065147;28;20187;-58
2021/03/18 04:23:54;;;;;;;28.20;18.00;;;;;;;;;;2064460;28;20411;-56
2021/03/18 04:24:55;;;;;;;26.07;16.33;;;;;;;;;;2062770;28;20391;-58
2021/03/18 04:25:56;;;;;;;24.30;16.23;;;;;;;;;;2064306;28;20185;-58
2021/03/18 04:26:56;;;;;;;28.00;17.03;;;;;;;;;;2064913;28;20627;-54
2021/03/18 04:27:57;;;;;;;29.87;16.40;;;;;;;;;;2065022;28;20497;-53
2021/03/18 04:28:59;;;;;;;29.47;17.00;;;;;;;;;;2061668;28;20173;-54
2021/03/18 04:30:00;;;;;;;26.03;16.23;;;;;;;;;;2057352;28;20572;-56
2021/03/18 04:31:00;;;;;;;28.50;16.83;;;;;;;;;;2065534;28;20166;-55
2021/03/18 04:32:01;;;;;;;26.17;16.63;;;;;;;;;;2072864;28;20630;-56
2021/03/18 04:33:01;;;;;;;25.87;16.80;;;;;;;;;;2068412;28;21010;-57
2021/03/18 04:34:02;;;;;;;27.63;16.07;;;;;;;;;;2066095;28;20240;-57
2021/03/18 04:35:03;;;;;;;29.57;16.03;;;;;;;;;;2072784;28;20207;-56
2021/03/18 04:36:04;;;;;;;28.27;16.00;;;;;;;;;;2064959;28;20169;-56
2021/03/18 04:37:05;;;;;;;23.53;16.80;;;;;;;;;;2065279;28;20165;-59
2021/03/18 04:38:09;;;;;;;23.70;17.03;;;;;;;;;;2071771;28;20169;-57
2021/03/18 04:39:09;;;;;;;26.97;16.83;;;;;;;;;;2066010;28;20177;-61
2021/03/18 04:40:11;;;;;;;29.70;16.93;;;;;;;;;;2065118;28;20205;-58
2021/03/18 04:41:11;;;;;;;25.63;16.90;;;;;;;;;;2060989;28;20208;-60
2021/03/18 04:42:13;;;;;;;24.10;17.53;;;;;;;;;;2070365;28;20187;-59
2021/03/18 04:43:13;;;;;;;29.93;17.13;;;;;;;;;;2065963;28;20165;-57
2021/03/18 04:44:14;;;;;;;32.70;17.07;;;;;;;;;;2065259;28;20523;-58
2021/03/18 04:45:17;;;;;;;24.33;16.43;;;;;;;;;;2064266;28;20184;-60
2021/03/18 04:46:17;;;;;;;25.27;18.40;;;;;;;;;;2064405;28;20617;-60
2021/03/18 04:47:19;;;;;;;25.40;17.13;;;;;;;;;;2064848;28;20167;-57
2021/03/18 04:48:21;;;;;;;22.57;16.10;;;;;;;;;;2064845;28;20181;-60
2021/03/18 04:49:22;;;;;;;25.03;17.23;;;;;;;;;;2067816;28;20252;-58
2021/03/18 04:50:23;;;;;;;30.77;16.50;;;;;;;;;;2069746;28;20914;-58
2021/03/18 04:51:24;;;;;;;28.77;17.30;;;;;;;;;;2067658;28;20469;-59
2021/03/18 04:52:24;;;;;;;26.10;17.40;;;;;;;;;;2070594;28;20196;-58
2021/03/18 04:53:25;;;;;;;25.83;17.90;;;;;;;;;;2064195;28;20174;-57
2021/03/18 04:54:25;;;;;;;29.03;18.40;;;;;;;;;;2063096;28;20666;-59
2021/03/18 04:55:26;;;;;;;25.40;17.40;;;;;;;;;;2060602;28;20165;-60
2021/03/18 04:56:27;;;;;;;29.33;18.30;;;;;;;;;;2063797;28;20235;-59
2021/03/18 04:57:28;;;;;;;31.13;18.43;;;;;;;;;;2056829;28;20412;-60
2021/03/18 04:58:29;;;;;;;27.23;19.20;;;;;;;;;;2062441;28;20221;-58
2021/03/18 04:59:29;;;;;;;29.60;19.50;;;;;;;;;;2068105;28;20262;-56
2021/03/18 05:00:31;;;;;;;33.47;19.07;;;;;;;;;;2065674;28;20177;-57
2021/03/18 05:01:31;;;;;;;31.40;19.40;;;;;;;;;;2063660;28;20594;-58
2021/03/18 05:02:32;;;;;;;34.50;20.67;;;;;;;;;;2064209;28;20280;-56
2021/03/18 05:03:36;;;;;;;32.07;19.53;;;;;;;;;;2064165;28;20658;-59
2021/03/18 05:04:36;;;;;;;28.17;19.43;;;;;;;;;;2067479;28;20193;-61
2021/03/18 05:05:37;;;;;;;31.47;18.83;;;;;;;;;;2063064;28;20542;-60
2021/03/18 05:06:38;;;;;;;33.03;18.37;;;;;;;;;;2070244;28;20169;-59
2021/03/18 05:07:38;;;;;;;24.13;17.87;;;;;;;;;;2067724;28;20677;-60
2021/03/18 05:08:39;;;;;;;28.47;19.17;;;;;;;;;;2064197;28;20169;-60
2021/03/18 05:09:40;;;;;;;32.63;19.33;;;;;;;;;;2066633;28;20209;-58
2021/03/18 05:10:41;;;;;;;28.53;17.00;;;;;;;;;;2070652;28;20201;-58
2021/03/18 05:11:42;;;;;;;29.47;18.57;;;;;;;;;;2071222;28;20522;-57
2021/03/18 05:12:43;;;;;;;32.47;16.97;;;;;;;;;;2066048;28;20224;-59
2021/03/18 05:13:44;;;;;;;30.03;17.90;;;;;;;;;;2070133;28;20204;-56
2021/03/18 05:14:45;;;;;;;27.80;17.20;;;;;;;;;;2066870;28;20260;-58
2021/03/18 05:15:46;;;;;;;24.63;17.00;;;;;;;;;;2066379;28;20638;-59
2021/03/18 05:16:47;;;;;;;28.07;16.53;;;;;;;;;;2057380;28;20186;-58
2021/03/18 05:17:48;;;;;;;37.03;17.30;;;;;;;;;;2077482;28;20203;-59
2021/03/18 05:18:48;;;;;;;28.67;16.07;;;;;;;;;;2073733;28;20926;-59
2021/03/18 05:19:49;;;;;;;31.37;16.13;;;;;;;;;;2071504;28;20220;-59
2021/03/18 05:20:49;;;;;;;36.47;16.83;;;;;;;;;;2069905;28;20302;-59
2021/03/18 05:21:49;;;;;;;39.83;16.17;;;;;;;;;;2064186;28;20166;-57
2021/03/18 05:22:50;;;;;;;30.20;16.37;;;;;;;;;;2064296;28;20538;-59
2021/03/18 05:23:51;;;;;;;35.50;16.27;;;;;;;;;;2064235;28;20169;-56
2021/03/18 05:24:51;;;;;;;37.17;18.10;;;;;;;;;;2065410;28;20173;-61
2021/03/18 05:25:52;;;;;;;34.10;17.53;;;;;;;;;;2065125;28;20217;-58
2021/03/18 05:26:52;;;;;;;32.30;16.97;;;;;;;;;;2068686;28;20173;-57
2021/03/18 05:27:52;;;;;;;35.73;18.03;;;;;;;;;;2072978;28;20676;-56
2021/03/18 05:28:52;;;;;;;44.63;19.20;;;;;;;;;;2063752;28;20185;-57
2021/03/18 05:29:53;;;;;;;38.00;19.23;;;;;;;;;;2065392;28;20173;-57
2021/03/18 05:30:54;;;;;;;36.50;18.23;;;;;;;;;;2059990;28;20179;-58
2021/03/18 05:31:54;;;;;;;30.03;18.60;;;;;;;;;;2065219;28;20228;-58
2021/03/18 05:32:55;;;;;;;36.20;20.07;;;;;;;;;;2065569;28;20713;-60
2021/03/18 05:33:55;;;;;;;38.93;19.30;;;;;;;;;;2064845;28;20222;-58
2021/03/18 05:34:55;;;;;;;43.03;18.73;;;;;;;;;;2066222;28;20162;-58
2021/03/18 05:35:56;;;;;;;31.53;19.87;;;;;;;;;;2065575;28;20204;-59
2021/03/18 05:36:56;;;;;;;27.93;18.00;;;;;;;;;;2065766;28;20210;-60
2021/03/18 05:37:56;;;;;;;34.90;18.97;;;;;;;;;;2068358;28;20589;-62
2021/03/18 05:38:56;;;;;;;38.90;19.03;;;;;;;;;;2065683;28;20669;-58
2021/03/18 05:39:57;;;;;;;29.70;19.03;;;;;;;;;;2065697;28;20166;-55
2021/03/18 05:40:57;;;;;;;36.00;18.67;;;;;;;;;;2067770;28;20226;-59
2021/03/18 05:41:59;;;;;;;30.73;17.83;;;;;;;;;;2064649;28;20555;-57
2021/03/18 05:42:59;;;;;;;27.60;18.10;;;;;;;;;;2064945;28;20565;-59
2021/03/18 05:44:00;;;;;;;37.83;19.10;;;;;;;;;;2074203;28;20176;-58
2021/03/18 05:45:01;;;;;;;37.20;17.80;;;;;;;;;;2066142;28;20170;-61
2021/03/18 05:46:01;;;;;;;34.00;20.03;;;;;;;;;;2073903;28;20653;-59
2021/03/18 05:47:02;;;;;;;41.17;18.73;;;;;;;;;;2067559;28;20177;-55
2021/03/18 05:48:03;;;;;;;36.17;19.70;;;;;;;;;;2066585;28;20181;-59
2021/03/18 05:49:03;;;;;;;32.93;17.97;;;;;;;;;;2073120;28;20166;-54
2021/03/18 05:50:14;;;;;;;38.03;17.77;;;;;;;;;;2065799;28;20188;-58
2021/03/18 05:51:16;;;;;;;39.03;19.07;;;;;;;;;;2072564;28;20165;-56
2021/03/18 05:52:18;;;;;;;33.87;20.20;;;;;;;;;;2065053;28;20521;-56
2021/03/18 05:53:18;;;;;;;37.63;21.20;;;;;;;;;;2065870;28;20454;-56
2021/03/18 05:54:19;;;;;;;63.17;22.63;;;;;;;;;;2065538;28;20503;-55
2021/03/18 05:55:20;;;;;;;52.70;22.77;;;;;;;;;;2063871;28;20180;-58
2021/03/18 05:56:22;;;;;;;33.93;21.77;;;;;;;;;;2068242;28;20418;-57
2021/03/18 05:57:22;;;;;;;50.80;22.37;;;;;;;;;;2067604;28;20440;-56
2021/03/18 05:58:24;;;;;;;51.27;24.13;;;;;;;;;;2060468;28;20415;-59
2021/03/18 05:59:25;;;;;;;45.10;24.20;;;;;;;;;;2065038;28;20220;-55